LOLU weather

Gmunden-Laakirchen Airport
Gmunden, Upper Austria, Austria

Public forecast

Using degrees Celsius for public forecast. Weather courtesy of forecast.io.

METAR (pilot weather report)

Closest report is Linz Hörsching Airport, 21.2 nm (39.3 km) NE. Retrieved 2019/03/25 15:20 UTC (9 minutes ago):

LOWL 251520Z 32019KT 9999 VCSH FEW016 SCT080 04/02 Q1018 NOSIG

TAF (pilot weather forecast)

Closest forecast is Linz Hörsching Airport, 21.2 nm (39.3 km) NE. Retrieved 2019/03/25 12:21 UTC (3 hours ago):

TAF LOWL 251115Z 2512/2612 26013KT 9999 SCT040 TX10/2512Z TN03/2604Z TEMPO 2512/2520 28017G28KT -SHRA FEW030TCU BKN040 PROB40 TEMPO 2512/2516 28023G33KT TEMPO 2523/2607 28005KT 6000 -DZRA SCT012 BKN018